createdAt,value
2022-12-06T00:01:09.955Z,72.69
2022-12-06T00:03:37.846Z,72.11
2022-12-06T00:06:27.955Z,72.50
2022-12-06T00:08:56.836Z,72.27
2022-12-06T00:11:29.786Z,72.26
2022-12-06T00:13:59.761Z,72.32
2022-12-06T00:16:27.606Z,72.06
2022-12-06T00:18:54.572Z,72.05
2022-12-06T00:21:28.606Z,72.20
2022-12-06T00:24:10.836Z,72.04
2022-12-06T00:26:47.073Z,72.14
2022-12-06T00:29:17.931Z,72.41
2022-12-06T00:31:44.974Z,72.33
2022-12-06T00:34:11.935Z,72.32
2022-12-06T00:36:40.319Z,72.41
2022-12-06T00:39:13.247Z,72.58
2022-12-06T00:41:40.601Z,72.62
2022-12-06T00:44:08.073Z,71.94
2022-12-06T00:46:36.038Z,72.36
2022-12-06T00:49:06.135Z,72.24
2022-12-06T00:51:34.251Z,72.03
2022-12-06T00:54:02.445Z,71.81
2022-12-06T00:56:29.733Z,71.84
2022-12-06T00:58:56.931Z,72.09
2022-12-06T01:01:29.455Z,72.07
2022-12-06T01:03:59.774Z,72.19
2022-12-06T01:06:29.647Z,72.01
2022-12-06T01:08:59.267Z,72.02
2022-12-06T01:11:27.347Z,71.87
2022-12-06T01:13:54.605Z,71.80
2022-12-06T01:16:25.516Z,71.33
2022-12-06T01:18:55.678Z,71.56
2022-12-06T01:21:23.616Z,71.61
2022-12-06T01:23:51.213Z,71.64
2022-12-06T01:26:19.719Z,71.76
2022-12-06T01:28:47.055Z,70.96
2022-12-06T01:31:15.824Z,71.62
2022-12-06T01:33:43.381Z,71.88
2022-12-06T01:36:16.775Z,72.14
2022-12-06T01:38:43.804Z,72.06
2022-12-06T01:41:10.699Z,72.03
2022-12-06T01:43:40.573Z,71.95
2022-12-06T01:46:13.052Z,71.50
2022-12-06T01:48:41.575Z,71.64
2022-12-06T01:51:11.389Z,71.64
2022-12-06T01:53:39.458Z,71.62
2022-12-06T01:56:07.657Z,71.75
2022-12-06T01:58:39.195Z,71.58
2022-12-06T02:01:08.152Z,72.07
2022-12-06T02:03:35.770Z,72.22
2022-12-06T02:06:06.399Z,72.14
2022-12-06T02:08:34.371Z,72.33
2022-12-06T02:11:04.022Z,72.47
2022-12-06T02:13:33.349Z,72.15
2022-12-06T02:16:06.025Z,72.30
2022-12-06T02:19:14.339Z,72.27
2022-12-06T02:21:47.994Z,72.17
2022-12-06T02:25:08.143Z,72.29
2022-12-06T02:27:40.713Z,72.86
2022-12-06T02:30:11.502Z,73.17
2022-12-06T02:32:43.312Z,73.53
2022-12-06T02:35:26.876Z,73.36
2022-12-06T02:38:13.401Z,73.52
2022-12-06T02:40:47.040Z,73.20
2022-12-06T02:43:26.130Z,73.07
2022-12-06T02:45:57.878Z,72.92
2022-12-06T02:48:26.576Z,73.40
2022-12-06T02:50:59.294Z,73.44
2022-12-06T02:53:29.465Z,73.31
2022-12-06T02:55:57.413Z,73.28
2022-12-06T02:58:24.446Z,73.40
2022-12-06T03:00:59.754Z,73.47
2022-12-06T03:03:29.632Z,73.33
2022-12-06T03:06:02.640Z,72.58
2022-12-06T03:08:57.239Z,72.85
2022-12-06T03:11:28.763Z,72.46
2022-12-06T03:14:14.505Z,72.65
2022-12-06T03:17:02.086Z,73.29
2022-12-06T03:19:31.603Z,73.32
2022-12-06T03:22:09.430Z,73.34
2022-12-06T03:24:39.678Z,73.08
2022-12-06T03:27:12.096Z,73.05
2022-12-06T03:29:43.929Z,72.96
2022-12-06T03:32:15.610Z,73.10
2022-12-06T03:34:47.477Z,73.67
2022-12-06T03:37:19.358Z,73.74
2022-12-06T03:40:08.241Z,74.00
2022-12-06T03:42:36.158Z,74.02
2022-12-06T03:45:04.850Z,73.55
2022-12-06T03:47:38.557Z,73.84
2022-12-06T03:50:16.595Z,73.88
2022-12-06T03:52:43.891Z,73.95
2022-12-06T03:55:10.912Z,73.83
2022-12-06T03:57:37.788Z,73.80
2022-12-06T04:00:06.205Z,73.73
2022-12-06T04:02:38.381Z,73.74
2022-12-06T04:05:05.705Z,73.85
2022-12-06T04:07:32.689Z,73.72
2022-12-06T04:10:03.700Z,73.62
2022-12-06T04:12:50.752Z,73.58
2022-12-06T04:15:18.679Z,73.49
2022-12-06T04:18:04.887Z,73.15
2022-12-06T04:20:52.042Z,72.97
2022-12-06T04:23:20.181Z,71.95
2022-12-06T04:25:47.275Z,72.41
2022-12-06T04:28:33.453Z,72.60
2022-12-06T04:31:22.345Z,72.92
2022-12-06T04:34:09.540Z,73.62
2022-12-06T04:36:56.950Z,73.21
2022-12-06T04:39:24.365Z,72.36
2022-12-06T04:42:09.949Z,71.79
2022-12-06T04:44:36.961Z,71.76
2022-12-06T04:47:04.926Z,72.16
2022-12-06T04:49:32.368Z,71.93
2022-12-06T04:51:59.211Z,72.18
2022-12-06T04:54:26.436Z,70.46
2022-12-06T04:56:53.492Z,69.81
2022-12-06T04:59:20.392Z,68.41
2022-12-06T05:01:47.933Z,68.38
2022-12-06T05:04:15.030Z,69.45
2022-12-06T05:06:42.065Z,70.53
2022-12-06T05:09:09.068Z,70.96
2022-12-06T05:11:36.116Z,67.56
2022-12-06T05:14:03.562Z,68.98
2022-12-06T05:16:30.716Z,69.70
2022-12-06T05:18:57.711Z,70.20
2022-12-06T05:21:25.580Z,70.13
2022-12-06T05:23:55.277Z,70.51
2022-12-06T05:26:28.914Z,70.50
2022-12-06T05:28:57.282Z,70.57
2022-12-06T05:31:25.855Z,70.67
2022-12-06T05:33:53.312Z,70.27
2022-12-06T05:36:23.433Z,69.97
2022-12-06T05:38:52.039Z,69.65
2022-12-06T05:41:20.818Z,70.21
2022-12-06T05:43:48.369Z,70.24
2022-12-06T05:46:15.455Z,70.51
2022-12-06T05:48:42.445Z,70.00
2022-12-06T05:51:09.407Z,69.88
2022-12-06T05:53:36.494Z,69.74
2022-12-06T05:56:09.160Z,69.75
2022-12-06T05:58:37.037Z,69.98
2022-12-06T06:01:06.168Z,69.42
2022-12-06T06:03:33.660Z,69.82
2022-12-06T06:06:02.258Z,70.32
2022-12-06T06:08:30.647Z,70.61
2022-12-06T06:10:58.753Z,69.96
2022-12-06T06:13:26.082Z,70.33
2022-12-06T06:15:53.072Z,70.51
2022-12-06T06:18:20.487Z,70.17
2022-12-06T06:20:52.477Z,70.24
2022-12-06T06:23:20.049Z,69.99
2022-12-06T06:25:47.342Z,69.83
2022-12-06T06:28:14.409Z,69.77
2022-12-06T06:30:41.507Z,70.12
2022-12-06T06:33:09.053Z,70.39
2022-12-06T06:35:36.366Z,70.82
2022-12-06T06:38:04.008Z,70.44
2022-12-06T06:40:31.038Z,70.37
2022-12-06T06:42:58.234Z,70.87
2022-12-06T06:45:28.903Z,71.11
2022-12-06T06:47:56.212Z,70.95
2022-12-06T06:50:23.088Z,71.18
2022-12-06T06:52:50.104Z,71.29
2022-12-06T06:55:17.166Z,71.01
2022-12-06T06:57:44.195Z,71.03
2022-12-06T07:00:11.926Z,70.84
2022-12-06T07:02:39.782Z,71.04
2022-12-06T07:05:07.374Z,71.20
2022-12-06T07:07:34.416Z,71.69
2022-12-06T07:10:01.592Z,71.90
2022-12-06T07:12:28.843Z,71.72
2022-12-06T07:14:55.948Z,71.95
2022-12-06T07:17:24.354Z,72.34
2022-12-06T07:19:51.356Z,72.18
2022-12-06T07:22:18.295Z,71.90
2022-12-06T07:24:50.756Z,71.57
2022-12-06T07:27:19.493Z,71.84
2022-12-06T07:29:46.441Z,71.49
2022-12-06T07:32:13.380Z,71.29
2022-12-06T07:34:40.278Z,72.05
2022-12-06T07:37:07.160Z,71.79
2022-12-06T07:39:34.146Z,72.68
2022-12-06T07:42:19.383Z,73.56
2022-12-06T07:45:02.870Z,73.53
2022-12-06T07:47:44.067Z,73.88
2022-12-06T07:50:20.395Z,73.94
2022-12-06T07:52:49.250Z,73.66
2022-12-06T07:55:17.274Z,74.07
2022-12-06T07:57:46.385Z,74.83
2022-12-06T08:00:16.272Z,74.63
2022-12-06T08:02:43.548Z,74.16
2022-12-06T08:05:11.027Z,74.43
2022-12-06T08:07:39.006Z,74.64
2022-12-06T08:10:06.774Z,75.71
2022-12-06T08:12:33.761Z,75.89
2022-12-06T08:15:00.785Z,76.10
2022-12-06T08:17:29.473Z,76.34
2022-12-06T08:19:56.455Z,77.30
2022-12-06T08:22:23.365Z,77.22
2022-12-06T08:24:50.425Z,77.06
2022-12-06T08:27:17.373Z,76.73
2022-12-06T08:29:45.465Z,75.66
2022-12-06T08:32:12.682Z,75.58
2022-12-06T08:34:39.572Z,75.54
2022-12-06T08:37:06.526Z,76.86
2022-12-06T08:39:33.531Z,76.36
2022-12-06T08:42:02.368Z,76.61
2022-12-06T08:44:31.745Z,74.50
2022-12-06T08:47:01.599Z,74.28
2022-12-06T08:49:30.252Z,74.31
2022-12-06T08:51:58.417Z,71.57
2022-12-06T08:54:26.606Z,72.48
2022-12-06T08:56:54.046Z,71.61
2022-12-06T08:59:21.841Z,72.97
2022-12-06T09:01:48.995Z,73.59
2022-12-06T09:04:16.098Z,71.69
2022-12-06T09:06:45.069Z,71.40
2022-12-06T09:09:13.881Z,71.87
2022-12-06T09:11:41.144Z,72.25
2022-12-06T09:14:16.408Z,72.62
2022-12-06T09:16:46.815Z,72.99
2022-12-06T09:19:14.601Z,73.62
2022-12-06T09:21:43.174Z,74.94
2022-12-06T09:24:15.028Z,75.35
2022-12-06T09:26:42.177Z,75.05
2022-12-06T09:29:09.988Z,74.75
2022-12-06T09:31:39.820Z,74.73
2022-12-06T09:34:10.866Z,74.37
2022-12-06T09:36:54.060Z,74.97
2022-12-06T09:39:38.182Z,74.06
2022-12-06T09:42:31.588Z,75.25
2022-12-06T09:45:13.394Z,75.34
2022-12-06T09:48:21.917Z,74.63
2022-12-06T09:51:26.212Z,73.28
2022-12-06T09:53:59.067Z,74.58
2022-12-06T09:56:28.974Z,73.43
2022-12-06T09:59:45.179Z,71.26
2022-12-06T10:02:41.304Z,71.93
2022-12-06T10:05:23.521Z,70.45
2022-12-06T10:07:56.344Z,70.80
2022-12-06T10:10:26.090Z,70.30
2022-12-06T10:13:01.970Z,70.59
2022-12-06T10:16:05.758Z,69.90
2022-12-06T10:18:51.538Z,69.62
2022-12-06T10:21:56.142Z,68.83
2022-12-06T10:24:41.279Z,68.41
2022-12-06T10:27:22.970Z,67.69
2022-12-06T10:29:52.850Z,67.94
2022-12-06T10:32:28.159Z,68.72
2022-12-06T10:34:58.314Z,67.42
2022-12-06T10:38:02.663Z,68.72
2022-12-06T10:40:37.849Z,67.50
2022-12-06T10:43:10.503Z,65.09
2022-12-06T10:46:08.679Z,60.76
2022-12-06T10:48:38.953Z,60.15
2022-12-06T10:51:13.113Z,60.13
2022-12-06T10:53:49.990Z,61.29
2022-12-06T10:56:21.344Z,62.59
2022-12-06T10:58:57.197Z,65.66
2022-12-06T11:01:32.071Z,65.61
2022-12-06T11:04:07.741Z,67.50
2022-12-06T11:06:40.663Z,66.10
2022-12-06T11:09:23.601Z,66.78
2022-12-06T11:11:50.751Z,64.25
2022-12-06T11:14:26.847Z,65.39
2022-12-06T11:16:55.649Z,64.37
2022-12-06T11:19:45.625Z,65.17
2022-12-06T11:22:37.463Z,62.36
2022-12-06T11:25:41.668Z,59.91
2022-12-06T11:28:29.557Z,62.14
2022-12-06T11:30:57.803Z,59.13
2022-12-06T11:33:36.986Z,61.50
2022-12-06T11:36:06.692Z,58.39
2022-12-06T11:38:37.302Z,58.01
2022-12-06T11:41:10.542Z,58.26
2022-12-06T11:43:38.261Z,58.77
2022-12-06T11:46:07.179Z,59.70
2022-12-06T11:48:35.988Z,60.90
2022-12-06T11:51:03.273Z,59.93
2022-12-06T11:53:42.707Z,59.68
2022-12-06T11:56:24.168Z,62.30
2022-12-06T11:59:21.265Z,62.71
2022-12-06T12:01:50.987Z,63.16
2022-12-06T12:04:43.252Z,63.40
2022-12-06T12:07:10.094Z,63.22
2022-12-06T12:10:03.131Z,60.80
2022-12-06T12:13:08.192Z,58.60
2022-12-06T12:15:36.416Z,58.87
2022-12-06T12:18:04.707Z,57.79
2022-12-06T12:20:38.368Z,58.28
2022-12-06T12:23:16.160Z,58.16
2022-12-06T12:25:43.948Z,57.95
2022-12-06T12:28:34.357Z,59.41
2022-12-06T12:31:29.624Z,60.67
2022-12-06T12:34:12.864Z,59.37
2022-12-06T12:36:48.913Z,59.37
2022-12-06T12:39:32.989Z,60.50
2022-12-06T12:42:01.319Z,59.65
2022-12-06T12:44:39.778Z,61.09
2022-12-06T12:47:27.456Z,60.58
2022-12-06T12:50:25.329Z,60.47
2022-12-06T12:52:53.127Z,61.14
2022-12-06T12:55:23.815Z,61.16
2022-12-06T12:57:58.678Z,61.50
2022-12-06T13:00:35.038Z,61.75
2022-12-06T13:03:18.026Z,61.03
2022-12-06T13:05:54.219Z,61.85
2022-12-06T13:08:27.138Z,61.41
2022-12-06T13:10:59.279Z,61.32
2022-12-06T13:13:35.273Z,61.70
2022-12-06T13:16:08.836Z,60.92
2022-12-06T13:18:50.572Z,61.55
2022-12-06T13:21:22.738Z,60.88
2022-12-06T13:23:54.289Z,60.93
2022-12-06T13:26:31.937Z,60.84
2022-12-06T13:29:05.107Z,60.89
2022-12-06T13:31:38.425Z,61.23
2022-12-06T13:34:26.352Z,61.20
2022-12-06T13:36:53.670Z,60.41
2022-12-06T13:39:49.399Z,60.67
2022-12-06T13:42:45.536Z,63.44
2022-12-06T13:45:39.590Z,63.73
2022-12-06T13:48:25.090Z,63.78
2022-12-06T13:50:53.790Z,64.13
2022-12-06T13:53:23.021Z,64.37
2022-12-06T13:55:58.948Z,63.92
2022-12-06T13:58:26.458Z,63.45
2022-12-06T14:00:56.111Z,63.61
2022-12-06T14:03:25.692Z,63.51
2022-12-06T14:09:03.997Z,64.08
2022-12-06T14:11:38.106Z,64.24
2022-12-06T14:14:14.244Z,64.13
2022-12-06T14:16:49.355Z,64.13
2022-12-06T14:19:23.571Z,63.27
2022-12-06T14:21:54.327Z,63.28
2022-12-06T14:24:42.332Z,62.94
2022-12-06T14:27:16.275Z,63.06
2022-12-06T14:29:58.318Z,63.09
2022-12-06T14:32:55.686Z,63.32
2022-12-06T14:35:24.765Z,63.15
2022-12-06T14:37:56.036Z,62.96
2022-12-06T14:43:18.992Z,63.08
2022-12-06T14:45:46.894Z,63.16
2022-12-06T14:48:14.391Z,63.24
2022-12-06T14:50:59.882Z,63.40
2022-12-06T14:53:32.996Z,63.97
2022-12-06T14:56:02.873Z,63.69
2022-12-06T14:58:40.425Z,63.33
2022-12-06T15:01:32.379Z,63.79
2022-12-06T15:04:01.474Z,62.74
2022-12-06T15:06:30.539Z,63.01
2022-12-06T15:08:57.547Z,63.49
2022-12-06T15:11:43.026Z,63.37
2022-12-06T15:14:25.156Z,63.51
2022-12-06T15:17:11.338Z,63.47
2022-12-06T15:19:44.211Z,63.55
2022-12-06T15:22:25.325Z,62.95
2022-12-06T15:24:57.914Z,62.86
2022-12-06T15:27:29.689Z,63.65
2022-12-06T15:29:56.558Z,63.98
2022-12-06T15:32:26.686Z,63.91
2022-12-06T15:34:53.661Z,63.87
2022-12-06T15:37:39.131Z,63.77
2022-12-06T15:40:07.579Z,64.04
2022-12-06T15:42:34.442Z,64.13
2022-12-06T15:45:01.581Z,64.01
2022-12-06T15:47:28.643Z,64.46
2022-12-06T15:49:58.405Z,65.16
2022-12-06T15:52:26.930Z,65.54
2022-12-06T15:54:53.919Z,66.19
2022-12-06T15:57:20.899Z,66.12
2022-12-06T15:59:48.292Z,65.89
2022-12-06T17:02:31.229Z,69.16
2022-12-06T17:05:01.490Z,68.85
2022-12-06T17:07:29.006Z,68.93
2022-12-06T17:09:55.971Z,68.86
2022-12-06T17:12:23.166Z,68.67
2022-12-06T17:14:50.554Z,68.73
2022-12-06T17:17:21.689Z,68.84
2022-12-06T17:19:49.667Z,68.10
2022-12-06T17:22:16.976Z,68.54
2022-12-06T17:24:44.080Z,68.39
2022-12-06T17:27:14.806Z,67.93
2022-12-06T17:29:43.744Z,67.80
2022-12-06T17:32:11.595Z,67.49
2022-12-06T17:34:38.547Z,67.31
2022-12-06T17:37:06.333Z,67.88
2022-12-06T17:39:33.477Z,67.38
2022-12-06T17:42:19.284Z,67.38
2022-12-06T17:44:46.304Z,66.84
2022-12-06T17:47:13.366Z,67.11
2022-12-06T17:49:40.349Z,68.15
2022-12-06T17:52:07.392Z,68.63
2022-12-06T17:54:34.282Z,68.86
2022-12-06T17:57:01.289Z,67.93
2022-12-06T17:59:31.931Z,68.19
2022-12-06T18:02:17.273Z,68.43
2022-12-06T18:04:45.883Z,68.37
2022-12-06T18:07:14.096Z,69.47
2022-12-06T18:09:41.129Z,69.22
2022-12-06T18:12:10.041Z,69.63
2022-12-06T18:14:37.316Z,69.59
2022-12-06T18:17:04.432Z,69.63
2022-12-06T18:19:32.069Z,70.19
2022-12-06T18:22:01.819Z,70.26
2022-12-06T18:24:33.573Z,70.25
2022-12-06T18:27:02.184Z,70.04
2022-12-06T18:29:29.368Z,70.60
2022-12-06T18:31:56.570Z,70.59
2022-12-06T18:34:23.588Z,70.19
2022-12-06T18:36:51.422Z,69.96
2022-12-06T18:39:24.757Z,69.48
2022-12-06T18:41:53.751Z,69.55
2022-12-06T18:44:21.143Z,70.24
2022-12-06T18:46:48.278Z,70.00
2022-12-06T18:49:15.420Z,69.67
2022-12-06T18:51:42.678Z,69.71
2022-12-06T18:54:11.000Z,71.06
2022-12-06T18:56:37.985Z,71.04
2022-12-06T18:59:08.826Z,70.63
2022-12-06T19:01:38.833Z,70.54
2022-12-06T19:04:08.025Z,70.80
2022-12-06T19:06:37.639Z,70.73
2022-12-06T19:09:11.579Z,70.94
2022-12-06T19:11:40.943Z,70.75
2022-12-06T19:14:08.066Z,69.47
2022-12-06T19:16:42.801Z,69.49
2022-12-06T19:19:15.791Z,70.11
2022-12-06T19:21:44.816Z,70.25
2022-12-06T19:24:13.949Z,70.28
2022-12-06T19:26:41.605Z,70.07
2022-12-06T19:29:08.863Z,70.19
2022-12-06T19:31:36.294Z,70.56
2022-12-06T19:34:03.606Z,70.48
2022-12-06T19:36:31.941Z,70.05
2022-12-06T19:39:06.162Z,70.25
2022-12-06T19:41:56.346Z,69.80
2022-12-06T19:44:24.037Z,69.16
2022-12-06T19:46:51.188Z,69.61
2022-12-06T19:49:20.821Z,69.61
2022-12-06T19:51:49.037Z,69.58
2022-12-06T19:54:19.045Z,70.19
2022-12-06T19:56:46.057Z,70.18
2022-12-06T19:59:13.215Z,70.05
2022-12-06T20:01:45.010Z,69.65
2022-12-06T20:04:23.612Z,70.10
2022-12-06T20:06:52.226Z,69.63
2022-12-06T20:09:21.308Z,70.13
2022-12-06T20:12:04.451Z,70.45
2022-12-06T20:14:46.379Z,70.33
2022-12-06T20:17:19.421Z,69.19
2022-12-06T20:19:46.806Z,69.39
2022-12-06T20:22:14.728Z,68.88
2022-12-06T20:24:41.695Z,69.62
2022-12-06T20:27:09.030Z,69.15
2022-12-06T20:29:36.079Z,69.06
2022-12-06T20:32:04.029Z,69.31
2022-12-06T20:34:34.477Z,69.29
2022-12-06T20:37:14.075Z,69.58
2022-12-06T20:39:41.084Z,69.12
2022-12-06T20:42:08.073Z,69.16
2022-12-06T20:44:35.702Z,69.86
2022-12-06T20:47:02.865Z,70.19
2022-12-06T20:49:29.997Z,69.41
2022-12-06T20:51:58.163Z,69.90
2022-12-06T20:54:25.157Z,70.37
2022-12-06T20:56:53.598Z,70.64
2022-12-06T20:59:21.388Z,70.43
2022-12-06T21:01:48.580Z,70.00
2022-12-06T21:04:16.851Z,70.29
2022-12-06T21:06:43.772Z,70.39
2022-12-06T21:09:10.792Z,70.01
2022-12-06T21:11:37.765Z,70.24
2022-12-06T21:14:05.957Z,71.00
2022-12-06T21:16:35.044Z,71.07
2022-12-06T21:19:05.925Z,71.35
2022-12-06T21:21:35.569Z,71.11
2022-12-06T21:24:06.043Z,71.36
2022-12-06T21:26:33.055Z,71.65
2022-12-06T21:29:00.173Z,71.49
2022-12-06T21:44:07.099Z,71.23
2022-12-06T21:46:34.606Z,71.39
2022-12-06T21:49:01.937Z,71.25
2022-12-06T21:51:31.940Z,71.05
2022-12-06T21:53:59.233Z,71.11
2022-12-06T21:56:28.760Z,70.93
2022-12-06T21:58:56.221Z,71.39
2022-12-06T22:01:28.061Z,71.36
2022-12-06T22:03:57.498Z,71.35
2022-12-06T22:06:25.098Z,72.00
2022-12-06T22:09:05.269Z,72.10
2022-12-06T22:11:33.238Z,72.04
2022-12-06T22:14:01.181Z,71.27
2022-12-06T22:16:29.316Z,71.00
2022-12-06T22:18:56.859Z,71.94
2022-12-06T22:21:26.802Z,71.85
2022-12-06T22:23:54.047Z,71.67
2022-12-06T22:26:22.672Z,71.89
2022-12-06T22:28:50.562Z,71.65
2022-12-06T22:31:36.045Z,71.49
2022-12-06T22:34:03.288Z,71.54
2022-12-06T22:36:30.717Z,71.54
2022-12-06T22:38:59.378Z,71.41
2022-12-06T22:41:28.092Z,71.60
2022-12-06T22:44:00.956Z,71.64
2022-12-06T22:46:29.075Z,71.13
2022-12-06T22:48:57.432Z,70.97
2022-12-06T22:51:36.960Z,71.04
2022-12-06T22:54:07.476Z,71.18
2022-12-06T22:56:34.592Z,71.47
2022-12-06T22:59:02.239Z,71.10
2022-12-06T23:01:31.797Z,71.36
2022-12-06T23:04:00.617Z,70.44
2022-12-06T23:06:28.125Z,71.03
2022-12-06T23:08:55.441Z,70.71
2022-12-06T23:11:25.505Z,70.70
2022-12-06T23:13:53.771Z,70.80
2022-12-06T23:16:24.139Z,70.46
2022-12-06T23:18:51.778Z,70.71
2022-12-06T23:21:22.068Z,69.93
2022-12-06T23:23:51.474Z,70.09
2022-12-06T23:26:21.337Z,70.35
2022-12-06T23:28:48.885Z,69.81
2022-12-06T23:31:21.746Z,70.16
2022-12-06T23:33:53.407Z,70.83
2022-12-06T23:36:23.938Z,70.56
2022-12-06T23:38:51.336Z,71.25
2022-12-06T23:41:25.140Z,71.46
2022-12-06T23:43:54.117Z,71.25
2022-12-06T23:46:23.926Z,71.03
2022-12-06T23:48:52.022Z,71.49
2022-12-06T23:51:21.619Z,71.35
2022-12-06T23:53:53.869Z,71.56
2022-12-06T23:56:22.223Z,71.05
2022-12-06T23:58:50.624Z,71.63
